Time;durP1;ratioP1;P1;durP2;ratioP2;P2;SDS_P1;SDS_P2;PMS_P1;PMS_P2;Temp;Humidity;BMP_temperature;BMP_pressure;BME280_temperature;BME280_humidity;BME280_pressure;Samples;Min_cycle;Max_cycle;Signal;HPM_P1;HPM_P2
2024/04/19 00:02:18;;;;;;;441.30;70.35;;;10.60;55.80;;;;;;5450100;26;20830;-69
2024/04/19 00:04:51;;;;;;;442.25;70.47;;;10.60;55.70;;;;;;5451349;26;20042;-68
2024/04/19 00:07:19;;;;;;;444.77;70.95;;;10.60;55.70;;;;;;5453101;26;20078;-68
2024/04/19 00:09:50;;;;;;;443.45;70.88;;;10.40;55.60;;;;;;5458593;25;20008;-68
2024/04/19 00:12:21;;;;;;;633.42;137.02;;;10.40;55.80;;;;;;5448807;26;20560;-69
2024/04/19 00:14:49;;;;;;;442.25;71.82;;;10.30;56.40;;;;;;5462952;26;19998;-69
2024/04/19 00:17:19;;;;;;;498.40;87.38;;;10.30;55.80;;;;;;5462707;26;20504;-68
2024/04/19 00:19:53;;;;;;;465.70;77.10;;;10.20;55.80;;;;;;5465326;26;20035;-69
2024/04/19 00:22:21;;;;;;;454.30;73.05;;;10.10;56.10;;;;;;5445476;26;20017;-69
2024/04/19 00:24:51;;;;;;;447.40;71.93;;;10.10;55.90;;;;;;5469599;26;20013;-68
2024/04/19 00:27:19;;;;;;;642.15;147.82;;;10.10;56.00;;;;;;5450171;26;19998;-69
2024/04/19 00:29:50;;;;;;;443.30;70.10;;;10.20;56.10;;;;;;5463540;26;20078;-67
2024/04/19 00:32:18;;;;;;;440.67;70.28;;;10.20;56.10;;;;;;5454499;26;20002;-69
2024/04/19 00:34:48;;;;;;;434.23;69.05;;;10.30;56.10;;;;;;5467683;26;20013;-68
2024/04/19 00:37:19;;;;;;;455.27;74.00;;;10.30;56.00;;;;;;5447283;25;20018;-70
2024/04/19 00:39:50;;;;;;;673.47;151.65;;;10.40;56.10;;;;;;5440443;26;20473;-68
2024/04/19 00:42:18;;;;;;;479.83;79.32;;;10.50;55.90;;;;;;5465260;26;20079;-68
2024/04/19 00:44:49;;;;;;;446.42;71.47;;;10.50;55.90;;;;;;5463620;26;20088;-69
2024/04/19 00:47:17;;;;;;;438.13;69.97;;;10.50;56.10;;;;;;5467358;26;19998;-68
2024/04/19 00:49:48;;;;;;;445.90;71.53;;;10.60;55.80;;;;;;5456259;26;20309;-68
2024/04/19 00:52:19;;;;;;;488.30;83.00;;;10.70;55.80;;;;;;5440680;26;20843;-68
2024/04/19 00:54:51;;;;;;;444.30;70.45;;;10.70;55.70;;;;;;5459530;26;20345;-68
2024/04/19 00:57:19;;;;;;;475.55;78.22;;;10.70;55.70;;;;;;5461916;26;20009;-67
2024/04/19 00:59:50;;;;;;;468.13;76.90;;;10.60;55.70;;;;;;5463022;26;20002;-68
2024/04/19 01:02:18;;;;;;;450.92;72.18;;;10.60;55.70;;;;;;5463731;26;19998;-68
2024/04/19 01:04:49;;;;;;;596.90;123.45;;;10.60;55.70;;;;;;5484557;26;20037;-68
2024/04/19 01:07:19;;;;;;;454.27;73.35;;;10.60;55.80;;;;;;5445785;26;20719;-69
2024/04/19 01:09:50;;;;;;;493.83;82.45;;;10.60;55.80;;;;;;5444772;26;20051;-73
2024/04/19 01:12:18;;;;;;;458.45;73.78;;;10.60;55.80;;;;;;5448845;26;20002;-69
2024/04/19 01:14:49;;;;;;;523.97;94.03;;;10.60;55.80;;;;;;5455615;26;20554;-69
2024/04/19 01:17:17;;;;;;;458.92;73.88;;;10.60;55.80;;;;;;5450064;26;19995;-68
2024/04/19 01:19:47;;;;;;;636.58;144.70;;;10.60;55.80;;;;;;5446032;25;20003;-70
2024/04/19 01:22:38;;;;;;;457.65;73.95;;;10.70;55.80;;;;;;5480861;25;20007;-68
2024/04/19 01:25:19;;;;;;;458.33;72.97;;;10.60;55.70;;;;;;5462527;26;20071;-68
2024/04/19 01:27:50;;;;;;;442.73;70.68;;;10.50;55.80;;;;;;5465741;25;20507;-67
2024/04/19 01:30:21;;;;;;;482.80;79.43;;;10.50;55.80;;;;;;5456058;26;20017;-68
2024/04/19 01:32:49;;;;;;;446.67;71.45;;;10.40;55.90;;;;;;5461006;26;20028;-68
2024/04/19 01:35:20;;;;;;;508.27;98.28;;;10.40;56.00;;;;;;5432770;26;20014;-68
2024/04/19 01:37:49;;;;;;;448.88;72.22;;;10.40;55.90;;;;;;5459960;26;20010;-69
2024/04/19 01:40:20;;;;;;;515.85;91.55;;;10.30;56.50;;;;;;5448762;26;20128;-68
2024/04/19 01:42:53;;;;;;;448.75;72.57;;;10.30;56.00;;;;;;5462891;26;20021;-68
2024/04/19 01:45:21;;;;;;;468.23;76.05;;;10.40;56.10;;;;;;5451997;26;23037;-69
2024/04/19 01:47:52;;;;;;;443.33;70.97;;;10.40;56.10;;;;;;5458572;26;19998;-68
2024/04/19 01:50:20;;;;;;;467.95;76.68;;;10.50;56.00;;;;;;5461991;26;20013;-67
2024/04/19 01:52:51;;;;;;;458.98;73.78;;;10.60;56.00;;;;;;5455990;26;20006;-69
2024/04/19 01:55:19;;;;;;;497.95;97.28;;;10.60;56.00;;;;;;5449757;26;20081;-68
2024/04/19 01:57:53;;;;;;;444.38;71.07;;;10.70;56.00;;;;;;5449269;26;20002;-68
2024/04/19 02:00:21;;;;;;;464.90;75.60;;;10.70;55.80;;;;;;5451604;26;20032;-69
2024/04/19 02:02:52;;;;;;;481.92;83.88;;;10.80;55.80;;;;;;5460782;26;20013;-69
2024/04/19 02:05:20;;;;;;;454.00;77.82;;;10.80;55.80;;;;;;5446950;26;21004;-68
2024/04/19 02:07:50;;;;;;;468.13;75.82;;;10.80;55.80;;;;;;5463805;26;20034;-68
2024/04/19 02:10:18;;;;;;;447.70;72.13;;;10.80;55.80;;;;;;5464425;26;20013;-67
2024/04/19 02:12:49;;;;;;;443.42;70.25;;;10.80;56.40;;;;;;5457207;26;20046;-69
2024/04/19 02:15:19;;;;;;;524.33;105.78;;;10.70;55.70;;;;;;5439732;26;20025;-67
2024/04/19 02:17:51;;;;;;;446.58;70.95;;;10.70;55.80;;;;;;5459389;26;20012;-68
2024/04/19 02:20:19;;;;;;;544.97;102.78;;;10.60;55.80;;;;;;5489358;25;20002;-69
2024/04/19 02:22:49;;;;;;;458.02;74.72;;;10.60;55.80;;;;;;5459393;26;20002;-68
2024/04/19 02:25:20;;;;;;;473.10;90.80;;;10.60;55.90;;;;;;5455254;26;20537;-68
2024/04/19 02:30:59;;;;;;;;;;;10.60;56.00;;;;;;5453578;26;20090;-69
2024/04/19 02:33:31;;;;;;;473.15;78.63;;;10.60;56.00;;;;;;5459259;26;19992;-68
2024/04/19 02:36:02;;;;;;;441.45;70.18;;;10.50;56.20;;;;;;5458689;26;20089;-67
2024/04/19 02:38:32;;;;;;;449.67;72.00;;;10.50;56.20;;;;;;5475647;26;20353;-68
2024/04/19 02:41:03;;;;;;;518.92;93.38;;;10.60;56.20;;;;;;5438501;26;19998;-68
2024/04/19 02:43:34;;;;;;;453.13;73.00;;;10.60;56.10;;;;;;5457873;26;19998;-68
2024/04/19 02:46:08;;;;;;;445.40;71.72;;;10.60;55.90;;;;;;5464248;26;19995;-72
2024/04/19 02:48:39;;;;;;;484.52;80.35;;;10.70;56.00;;;;;;5450315;26;20046;-68
2024/04/19 02:51:09;;;;;;;628.40;132.38;;;10.70;55.90;;;;;;5444502;26;20532;-68
2024/04/19 02:53:40;;;;;;;472.77;77.57;;;10.70;55.90;;;;;;5461557;26;20544;-68
2024/04/19 02:56:11;;;;;;;446.25;71.65;;;10.70;55.70;;;;;;5450657;26;22883;-68
2024/04/19 02:58:42;;;;;;;498.95;83.68;;;10.70;55.80;;;;;;5460438;26;20002;-68
2024/04/19 03:01:15;;;;;;;648.22;144.27;;;10.70;55.80;;;;;;5456076;26;19994;-68
2024/04/19 03:03:46;;;;;;;468.30;75.35;;;10.60;55.80;;;;;;5465325;26;20008;-69
2024/04/19 03:06:17;;;;;;;443.33;70.63;;;10.60;55.90;;;;;;5454666;26;19998;-68
2024/04/19 03:08:47;;;;;;;485.35;81.00;;;10.60;56.00;;;;;;5456593;26;20002;-69
2024/04/19 03:11:18;;;;;;;640.35;144.60;;;10.50;55.80;;;;;;5440932;25;20002;-69
2024/04/19 03:13:51;;;;;;;442.92;70.90;;;10.40;55.80;;;;;;5451202;26;19999;-67
2024/04/19 03:16:25;;;;;;;441.67;70.88;;;10.30;55.90;;;;;;5454016;26;20086;-67
2024/04/19 03:18:55;;;;;;;461.65;74.43;;;10.30;56.10;;;;;;5457469;26;19998;-67
2024/04/19 03:21:26;;;;;;;464.42;82.40;;;10.20;55.90;;;;;;5453599;26;20112;-68
2024/04/19 03:23:56;;;;;;;453.38;73.15;;;10.10;55.90;;;;;;5460259;26;20006;-68
2024/04/19 03:26:27;;;;;;;459.55;74.38;;;10.00;56.10;;;;;;5464178;26;20014;-68
2024/04/19 03:28:55;;;;;;;482.23;79.82;;;10.00;56.20;;;;;;5429597;26;20014;-68
2024/04/19 03:31:28;;;;;;;460.08;78.57;;;9.90;56.30;;;;;;5451675;26;20944;-66
2024/04/19 03:33:59;;;;;;;451.70;73.03;;;10.00;56.40;;;;;;5441805;26;20018;-68
2024/04/19 03:36:31;;;;;;;450.25;72.22;;;10.00;56.40;;;;;;5454830;26;20002;-67
2024/04/19 03:39:01;;;;;;;531.63;93.82;;;10.00;56.40;;;;;;5445770;26;20421;-66
2024/04/19 03:41:33;;;;;;;456.50;73.63;;;10.10;56.40;;;;;;5450150;26;19999;-68
2024/04/19 03:46:53;;;;;;;463.08;74.60;;;10.10;56.50;;;;;;5461507;26;20021;-68
2024/04/19 03:49:25;;;;;;;607.33;128.43;;;10.10;56.40;;;;;;5449221;26;20082;-68
2024/04/19 03:51:56;;;;;;;519.95;91.38;;;10.20;56.40;;;;;;5490140;25;19995;-68
2024/04/19 03:54:26;;;;;;;442.13;71.15;;;10.20;56.40;;;;;;5464465;26;19998;-68
2024/04/19 03:56:57;;;;;;;454.35;75.75;;;10.20;56.30;;;;;;5457549;26;20002;-68
2024/04/19 03:59:25;;;;;;;653.95;150.15;;;10.20;56.60;;;;;;5452823;25;20401;-68
2024/04/19 04:02:18;;;;;;;456.95;74.20;;;10.10;56.20;;;;;;5465658;26;20329;-69
2024/04/19 04:04:58;;;;;;;467.65;75.93;;;10.10;56.30;;;;;;5459952;26;20009;-67
2024/04/19 04:07:28;;;;;;;638.20;143.75;;;10.10;56.30;;;;;;5437056;26;20007;-67
2024/04/19 04:09:59;;;;;;;525.65;91.38;;;10.10;56.20;;;;;;5459516;26;20051;-68
2024/04/19 04:12:32;;;;;;;463.83;75.03;;;10.00;56.30;;;;;;5468422;25;19999;-68
2024/04/19 04:15:03;;;;;;;471.15;76.97;;;10.00;56.40;;;;;;5453622;26;20016;-68
2024/04/19 04:17:43;;;;;;;644.47;143.68;;;10.10;56.40;;;;;;5456494;26;20577;-68
2024/04/19 04:20:14;;;;;;;491.02;81.75;;;10.10;56.40;;;;;;5455868;26;20005;-69
2024/04/19 04:22:45;;;;;;;495.77;81.93;;;10.10;56.40;;;;;;5463119;26;20013;-69
2024/04/19 04:25:16;;;;;;;460.63;74.05;;;10.10;56.30;;;;;;5455224;26;20038;-68
2024/04/19 04:27:46;;;;;;;483.42;93.25;;;10.10;56.40;;;;;;5446600;26;20806;-68
2024/04/19 04:30:17;;;;;;;454.10;72.95;;;10.10;56.40;;;;;;5466083;26;20002;-68
2024/04/19 04:32:51;;;;;;;484.35;79.82;;;10.10;56.40;;;;;;5455667;26;20002;-69
2024/04/19 04:35:21;;;;;;;465.52;75.55;;;10.10;56.40;;;;;;5455562;26;20405;-68
2024/04/19 04:37:52;;;;;;;460.80;74.88;;;10.10;56.50;;;;;;5458109;26;20009;-68
2024/04/19 04:40:23;;;;;;;514.65;89.45;;;10.10;56.40;;;;;;5460017;26;20025;-69
2024/04/19 04:42:54;;;;;;;491.80;81.70;;;10.10;56.50;;;;;;5452339;26;20018;-69
2024/04/19 04:45:25;;;;;;;512.03;89.65;;;10.10;56.50;;;;;;5460152;26;19994;-70
2024/04/19 04:48:00;;;;;;;467.58;76.40;;;10.20;56.50;;;;;;5449042;26;20002;-68
2024/04/19 04:50:31;;;;;;;522.42;88.50;;;10.20;56.40;;;;;;5458157;26;20390;-69
2024/04/19 04:53:03;;;;;;;469.10;75.88;;;10.20;56.40;;;;;;5456074;26;20014;-68
2024/04/19 04:55:34;;;;;;;483.95;79.45;;;10.30;56.40;;;;;;5446286;26;20002;-68
2024/04/19 04:58:05;;;;;;;487.35;79.85;;;10.30;56.40;;;;;;5457420;25;19998;-69
2024/04/19 05:00:36;;;;;;;476.95;78.28;;;10.30;56.30;;;;;;5459689;25;20451;-72
2024/04/19 05:03:09;;;;;;;509.90;86.40;;;10.30;56.40;;;;;;5456977;26;20031;-72
2024/04/19 05:05:40;;;;;;;525.38;103.60;;;10.30;56.40;;;;;;5447340;25;20754;-68
2024/04/19 05:08:11;;;;;;;517.28;89.93;;;10.30;56.80;;;;;;5455360;25;20028;-68
2024/04/19 05:10:41;;;;;;;510.13;85.63;;;10.30;56.40;;;;;;5458296;26;19998;-69
2024/04/19 05:13:12;;;;;;;465.73;75.57;;;10.40;56.50;;;;;;5452695;26;20010;-71
2024/04/19 05:15:44;;;;;;;525.63;94.20;;;10.40;56.50;;;;;;5453077;26;20530;-67
2024/04/19 05:18:18;;;;;;;471.33;77.32;;;10.40;56.40;;;;;;5459944;26;20160;-70
2024/04/19 05:20:49;;;;;;;478.80;79.05;;;10.40;56.40;;;;;;5456741;25;20017;-68
2024/04/19 05:23:20;;;;;;;701.53;142.65;;;10.50;56.40;;;;;;5409669;26;22095;-63
2024/04/19 05:25:52;;;;;;;469.15;78.03;;;10.50;56.40;;;;;;5464040;26;20002;-62
2024/04/19 05:28:23;;;;;;;481.50;83.70;;;10.40;56.40;;;;;;5481640;25;20005;-65
2024/04/19 05:30:57;;;;;;;514.10;90.05;;;10.50;56.50;;;;;;5470623;25;19997;-66
2024/04/19 05:33:31;;;;;;;507.80;87.75;;;10.60;56.60;;;;;;5477498;25;20583;-67
2024/04/19 05:36:03;;;;;;;635.05;135.82;;;10.60;56.60;;;;;;5447980;25;20006;-68
2024/04/19 05:38:34;;;;;;;509.80;91.60;;;10.70;56.60;;;;;;5440504;26;20492;-63
2024/04/19 05:41:05;;;;;;;515.00;90.75;;;10.80;56.50;;;;;;5468609;25;20890;-63
2024/04/19 05:43:35;;;;;;;487.20;82.70;;;10.90;56.40;;;;;;5450628;26;20022;-62
2024/04/19 05:46:09;;;;;;;497.15;87.15;;;10.90;56.30;;;;;;5453798;26;20002;-68
2024/04/19 05:48:43;;;;;;;539.58;99.85;;;10.80;56.30;;;;;;5454333;25;20468;-66
2024/04/19 05:51:14;;;;;;;510.98;87.68;;;10.90;56.50;;;;;;5474442;26;20020;-66
2024/04/19 05:53:44;;;;;;;495.08;87.03;;;10.90;56.40;;;;;;5452294;26;20043;-66
2024/04/19 05:56:16;;;;;;;517.63;95.47;;;10.90;56.40;;;;;;5452823;26;20002;-64
2024/04/19 05:58:47;;;;;;;506.83;86.95;;;11.00;56.40;;;;;;5474199;25;20081;-66
2024/04/19 06:01:18;;;;;;;496.58;90.68;;;11.00;56.40;;;;;;5451086;26;20012;-64
2024/04/19 06:03:52;;;;;;;511.77;89.15;;;11.00;56.30;;;;;;5478160;25;21081;-65
2024/04/19 06:06:25;;;;;;;503.90;89.80;;;11.10;56.40;;;;;;5453960;26;20002;-68
2024/04/19 06:08:56;;;;;;;488.17;85.13;;;11.20;56.50;;;;;;5452609;26;21255;-64
2024/04/19 06:11:28;;;;;;;491.33;83.03;;;11.20;56.20;;;;;;5453771;26;20023;-66
2024/04/19 06:13:59;;;;;;;523.65;92.32;;;11.20;56.20;;;;;;5481771;25;20029;-68
2024/04/19 06:16:29;;;;;;;563.75;106.47;;;11.30;56.30;;;;;;5467619;25;20090;-63
2024/04/19 06:19:02;;;;;;;564.38;122.25;;;11.30;56.10;;;;;;5462909;25;20012;-62
2024/04/19 06:21:34;;;;;;;478.23;81.35;;;11.20;56.10;;;;;;5471172;25;20054;-63
2024/04/19 06:24:06;;;;;;;482.88;84.05;;;11.20;56.20;;;;;;5476524;26;20028;-63
2024/04/19 06:26:36;;;;;;;464.00;77.63;;;11.30;56.90;;;;;;5478571;26;20003;-62
2024/04/19 06:29:07;;;;;;;698.67;163.45;;;11.40;56.50;;;;;;5446820;26;20010;-62
2024/04/19 06:31:37;;;;;;;506.08;88.72;;;11.70;56.60;;;;;;5453967;26;20013;-62
2024/04/19 06:34:11;;;;;;;539.25;98.13;;;11.90;56.50;;;;;;5445518;26;20053;-65
2024/04/19 06:36:41;;;;;;;483.15;81.88;;;12.20;56.50;;;;;;5451213;25;20025;-63
2024/04/19 06:39:22;;;;;;;548.70;101.00;;;12.40;56.30;;;;;;5447564;25;20010;-63
2024/04/19 06:41:52;;;;;;;500.35;87.25;;;12.70;56.30;;;;;;5439611;26;20066;-62
2024/04/19 06:44:23;;;;;;;501.58;88.47;;;12.90;56.10;;;;;;5451845;25;19994;-62
2024/04/19 06:46:54;;;;;;;511.45;88.97;;;13.10;56.00;;;;;;5447576;26;20032;-62
2024/04/19 06:49:27;;;;;;;493.80;85.93;;;13.30;55.90;;;;;;5448548;26;20075;-62
2024/04/19 06:51:58;;;;;;;736.75;176.20;;;13.40;55.70;;;;;;5435190;26;20046;-63
2024/04/19 06:54:28;;;;;;;506.05;89.47;;;13.50;55.50;;;;;;5471716;25;20099;-67
2024/04/19 06:57:01;;;;;;;529.50;97.20;;;13.60;55.70;;;;;;5443166;25;20010;-60
2024/04/19 06:59:32;;;;;;;517.83;93.63;;;13.80;55.90;;;;;;5451495;26;20010;-62
2024/04/19 07:02:03;;;;;;;505.02;91.95;;;14.00;55.70;;;;;;5448780;26;20035;-62
2024/04/19 07:04:37;;;;;;;691.38;165.40;;;14.20;55.60;;;;;;5442806;26;19998;-70
2024/04/19 07:07:08;;;;;;;522.10;90.47;;;14.30;55.50;;;;;;5437109;26;19994;-70
2024/04/19 07:09:39;;;;;;;524.45;91.47;;;14.50;55.40;;;;;;5452376;26;20569;-68
2024/04/19 07:12:10;;;;;;;516.33;89.13;;;14.70;55.40;;;;;;5448981;26;20563;-67
2024/04/19 07:14:41;;;;;;;548.90;102.03;;;15.00;55.50;;;;;;5448545;26;20121;-67
2024/04/19 07:17:11;;;;;;;672.92;150.30;;;15.30;55.50;;;;;;5441601;26;20006;-68
2024/04/19 07:19:45;;;;;;;567.88;108.60;;;15.60;55.10;;;;;;5448444;26;20010;-68
2024/04/19 07:22:17;;;;;;;496.92;88.40;;;15.90;55.00;;;;;;5432822;26;20055;-68
2024/04/19 07:24:48;;;;;;;508.55;89.70;;;15.90;54.20;;;;;;5446912;26;20867;-67
2024/04/19 07:27:19;;;;;;;510.73;90.63;;;15.80;53.90;;;;;;5447178;26;20753;-68
2024/04/19 07:30:10;;;;;;;553.45;103.95;;;15.70;54.20;;;;;;5450373;26;20009;-54
2024/04/19 07:32:40;;;;;;;495.10;90.05;;;15.80;54.60;;;;;;5464178;25;20776;-63
2024/04/19 07:35:14;;;;;;;518.78;97.03;;;15.80;54.00;;;;;;5469175;26;20014;-62
2024/04/19 07:37:44;;;;;;;527.92;99.10;;;15.70;54.00;;;;;;5461679;25;20025;-62
2024/04/19 07:40:16;;;;;;;548.17;107.82;;;15.60;53.90;;;;;;5468187;26;20121;-65
2024/04/19 07:42:46;;;;;;;507.63;93.05;;;15.40;53.70;;;;;;5480396;26;20001;-65
2024/04/19 07:45:22;;;;;;;509.08;98.30;;;15.20;53.70;;;;;;5467779;26;20088;-61
2024/04/19 07:47:53;;;;;;;;;;;15.10;53.90;;;;;;5469945;25;20058;-63
2024/04/19 07:50:26;;;;;;;529.08;97.10;;;15.20;54.00;;;;;;5474441;25;20290;-64
2024/04/19 07:52:57;;;;;;;624.25;142.25;;;15.20;54.00;;;;;;5448255;26;19998;-61
2024/04/19 07:55:27;;;;;;;529.10;100.65;;;15.30;54.10;;;;;;5454563;26;20774;-61
2024/04/19 07:57:58;;;;;;;535.60;115.57;;;15.30;53.60;;;;;;5472959;26;20117;-60
2024/04/19 08:00:29;;;;;;;592.78;252.75;;;15.40;53.60;;;;;;5477337;25;20122;-65
2024/04/19 08:02:59;;;;;;;577.75;294.88;;;15.50;53.60;;;;;;5470734;25;20001;-61
2024/04/19 08:05:33;;;;;;;614.53;370.80;;;15.60;53.60;;;;;;5456323;26;20126;-64
2024/04/19 08:08:03;;;;;;;622.83;394.40;;;15.80;53.50;;;;;;5456708;26;20056;-61
2024/04/19 08:10:35;;;;;;;626.83;404.92;;;16.10;53.40;;;;;;5461540;26;20016;-63
2024/04/19 08:13:08;;;;;;;638.70;402.88;;;16.10;52.90;;;;;;5473065;25;20001;-60
2024/04/19 08:15:38;;;;;;;649.95;425.35;;;16.00;52.70;;;;;;5473315;26;20006;-60
2024/04/19 08:18:09;;;;;;;641.17;443.55;;;15.90;52.70;;;;;;5473968;25;20054;-61
2024/04/19 08:20:42;;;;;;;628.08;442.83;;;15.70;52.70;;;;;;5474280;26;19998;-63
2024/04/19 08:23:13;;;;;;;621.20;428.40;;;15.60;52.80;;;;;;5478481;25;20046;-59
2024/04/19 08:25:47;;;;;;;811.80;498.48;;;15.40;52.70;;;;;;5455802;25;20117;-61
2024/04/19 08:28:18;;;;;;;631.58;437.08;;;15.30;53.10;;;;;;5477749;25;20024;-66
2024/04/19 08:30:49;;;;;;;682.53;455.90;;;15.30;53.20;;;;;;5470844;25;20017;-62
2024/04/19 08:33:19;;;;;;;634.47;440.92;;;15.30;53.30;;;;;;5474542;25;20009;-62
2024/04/19 08:35:59;;;;;;;621.05;421.70;;;15.40;53.30;;;;;;5470392;25;20095;-63
2024/04/19 08:38:31;;;;;;;631.85;448.95;;;15.40;53.20;;;;;;5457729;25;20010;-63
2024/04/19 08:41:05;;;;;;;615.75;430.13;;;15.50;53.20;;;;;;5468296;26;20009;-64
2024/04/19 08:43:38;;;;;;;646.05;444.88;;;15.50;52.90;;;;;;5463676;26;20034;-64
2024/04/19 08:46:09;;;;;;;639.83;437.95;;;15.40;52.80;;;;;;5469990;25;20563;-61
2024/04/19 08:48:42;;;;;;;777.65;495.25;;;15.30;52.70;;;;;;5453126;25;20003;-63
2024/04/19 08:51:17;;;;;;;658.58;444.33;;;15.20;52.80;;;;;;5457905;26;20077;-62
2024/04/19 08:54:02;;;;;;;652.45;441.13;;;15.10;52.80;;;;;;5467101;25;20001;-63
2024/04/19 08:56:33;;;;;;;611.42;416.83;;;14.90;52.80;;;;;;5471687;25;20013;-63
2024/04/19 08:59:06;;;;;;;647.78;445.55;;;14.80;53.20;;;;;;5456386;25;20224;-63
2024/04/19 09:01:36;;;;;;;653.67;430.52;;;14.90;53.50;;;;;;5458001;26;20009;-63
2024/04/19 09:04:07;;;;;;;631.50;432.95;;;15.10;53.50;;;;;;5474147;25;20001;-61
2024/04/19 09:06:46;;;;;;;631.08;421.17;;;15.40;53.60;;;;;;5470464;25;20724;-63
2024/04/19 09:09:17;;;;;;;627.40;469.90;;;15.70;53.40;;;;;;5465962;25;20001;-62
2024/04/19 09:11:48;;;;;;;633.60;442.25;;;16.20;53.30;;;;;;5440831;25;20552;-65
2024/04/19 09:14:20;;;;;;;611.75;407.65;;;16.70;53.10;;;;;;5476357;25;20108;-64
2024/04/19 09:16:51;;;;;;;775.38;474.88;;;17.10;52.60;;;;;;5466006;25;20053;-62
2024/04/19 09:19:21;;;;;;;629.13;431.02;;;17.40;52.30;;;;;;5458292;26;20045;-64
2024/04/19 09:21:57;;;;;;;648.85;462.10;;;17.70;52.00;;;;;;5461514;25;19998;-63
2024/04/19 09:24:28;;;;;;;647.70;459.02;;;17.90;51.80;;;;;;5472520;26;19998;-62
2024/04/19 09:27:04;;;;;;;800.03;513.25;;;18.20;51.80;;;;;;5464428;25;20002;-61
2024/04/19 09:29:54;;;;;;;514.55;100.10;;;18.50;51.50;;;;;;5476592;25;20017;-64
2024/04/19 09:32:23;;;;;;;527.28;101.50;;;18.80;51.10;;;;;;5443026;26;20090;-64
2024/04/19 09:34:54;;;;;;;687.13;175.88;;;19.20;51.30;;;;;;5464271;25;20001;-62
2024/04/19 09:37:29;;;;;;;523.50;107.28;;;19.60;51.00;;;;;;5475919;26;20117;-65
2024/04/19 09:40:01;;;;;;;541.65;111.38;;;19.90;50.10;;;;;;5475384;25;20002;-65
2024/04/19 09:42:35;;;;;;;547.53;114.07;;;20.10;50.20;;;;;;5482011;25;20001;-65
2024/04/19 09:45:12;;;;;;;569.53;131.05;;;20.40;49.70;;;;;;5475153;25;20010;-62
2024/04/19 09:47:45;;;;;;;517.33;109.38;;;20.60;49.60;;;;;;5455318;26;20661;-64
2024/04/19 09:50:17;;;;;;;567.63;125.43;;;21.00;49.40;;;;;;5480383;25;20089;-63
2024/04/19 09:52:55;;;;;;;636.55;148.88;;;20.90;48.60;;;;;;5473350;25;20385;-64
2024/04/19 09:55:35;;;;;;;533.22;113.28;;;20.80;49.00;;;;;;5479714;25;20005;-67
2024/04/19 09:58:08;;;;;;;552.80;123.95;;;21.80;50.60;;;;;;5435077;26;19998;-68
2024/04/19 10:00:40;;;;;;;544.90;122.55;;;22.90;49.00;;;;;;5452804;26;20020;-63
2024/04/19 10:03:17;;;;;;;563.47;127.57;;;22.90;47.60;;;;;;5442935;25;20024;-60
2024/04/19 10:05:49;;;;;;;578.03;130.85;;;22.50;47.10;;;;;;5431711;26;20010;-62
2024/04/19 10:08:27;;;;;;;593.80;139.60;;;22.30;47.90;;;;;;5445038;26;20028;-66
2024/04/19 10:11:00;;;;;;;706.63;197.88;;;22.40;48.00;;;;;;5438545;26;20441;-67
2024/04/19 10:13:31;;;;;;;543.00;131.73;;;22.40;48.00;;;;;;5451307;26;20030;-68
2024/04/19 10:16:08;;;;;;;537.88;149.15;;;22.60;47.90;;;;;;5439789;26;20008;-67
2024/04/19 10:18:50;;;;;;;564.78;149.15;;;22.70;47.70;;;;;;5452740;26;20578;-68
2024/04/19 10:21:21;;;;;;;553.35;139.93;;;23.00;48.30;;;;;;5441193;26;20006;-63
2024/04/19 10:23:55;;;;;;;574.67;147.65;;;23.40;47.40;;;;;;5535796;21;20045;-74
2024/04/19 10:26:29;;;;;;;542.05;139.10;;;24.10;47.30;;;;;;5376605;26;20027;-74
2024/04/19 10:29:01;;;;;;;755.55;202.35;;;25.00;46.70;;;;;;5404571;26;20070;-72
2024/04/19 10:31:32;;;;;;;569.05;146.95;;;25.70;46.10;;;;;;5381719;26;20094;-72
2024/04/19 10:34:05;;;;;;;564.47;159.90;;;26.50;45.40;;;;;;5376270;26;20016;-73
2024/04/19 10:36:41;;;;;;;534.20;151.45;;;27.30;45.10;;;;;;5379068;26;19996;-73
2024/04/19 10:39:16;;;;;;;713.88;219.77;;;27.90;43.70;;;;;;5377992;26;20007;-72
2024/04/19 10:41:52;;;;;;;542.60;159.60;;;27.70;43.00;;;;;;5376261;26;19996;-78
2024/04/19 10:44:24;;;;;;;;;;;27.80;43.70;;;;;;5375995;26;20005;-65
2024/04/19 10:47:02;;;;;;;615.60;186.73;;;29.20;43.60;;;;;;5372901;26;19925;-67
2024/04/19 10:49:33;;;;;;;566.15;181.15;;;30.20;41.80;;;;;;5376356;26;20041;-64
2024/04/19 10:52:05;;;;;;;564.72;180.88;;;30.90;40.70;;;;;;5376282;26;20000;-63
2024/04/19 10:54:38;;;;;;;560.88;187.40;;;31.40;39.90;;;;;;5377064;26;20427;-63
2024/04/19 10:57:09;;;;;;;743.40;251.07;;;31.80;39.10;;;;;;5373811;26;20000;-64
2024/04/19 10:59:40;;;;;;;628.60;205.02;;;31.60;38.60;;;;;;5376616;26;20001;-65
2024/04/19 11:02:12;;;;;;;574.22;178.10;;;30.90;38.30;;;;;;5362308;26;20110;-64
2024/04/19 11:04:44;;;;;;;566.22;167.98;;;29.70;39.20;;;;;;5353554;26;20005;-60
2024/04/19 11:07:15;;;;;;;690.75;221.05;;;28.90;40.00;;;;;;5334436;26;20016;-68
2024/04/19 11:09:48;;;;;;;563.78;158.73;;;27.80;40.40;;;;;;5331098;26;20010;-68
2024/04/19 11:12:20;;;;;;;549.95;144.85;;;26.70;40.90;;;;;;5339978;26;20361;-65
2024/04/19 11:14:50;;;;;;;611.15;155.40;;;25.50;41.70;;;;;;5354770;26;20008;-66
2024/04/19 11:17:21;;;;;;;731.75;206.35;;;24.50;42.30;;;;;;5355844;26;20032;-66
2024/04/19 11:19:58;;;;;;;560.10;133.32;;;23.50;42.80;;;;;;5355852;26;20003;-68
2024/04/19 11:22:28;;;;;;;678.83;168.07;;;22.50;43.20;;;;;;5343499;26;20474;-63
2024/04/19 11:25:02;;;;;;;537.58;119.60;;;21.70;43.90;;;;;;5358697;26;20074;-64
2024/04/19 11:27:34;;;;;;;581.45;130.82;;;21.10;44.60;;;;;;5333452;26;20008;-63
2024/04/19 11:30:23;;;;;;;572.72;126.57;;;20.70;45.50;;;;;;5346162;26;20023;-66
2024/04/19 11:32:55;;;;;;;601.95;133.50;;;20.70;45.90;;;;;;5344783;26;20080;-67
2024/04/19 11:35:26;;;;;;;714.13;184.43;;;20.60;45.70;;;;;;5336667;26;20287;-67
2024/04/19 11:38:00;;;;;;;560.65;120.55;;;20.60;46.00;;;;;;5342185;26;20012;-67
2024/04/19 11:40:34;;;;;;;571.15;119.95;;;20.80;46.30;;;;;;5346141;26;20537;-69
2024/04/19 11:43:05;;;;;;;555.10;119.30;;;21.20;46.30;;;;;;5346698;26;20038;-65
2024/04/19 11:45:36;;;;;;;626.28;146.50;;;21.60;46.00;;;;;;5364598;26;21346;-68
2024/04/19 11:48:06;;;;;;;584.13;153.02;;;21.90;45.60;;;;;;5351961;26;20429;-66
2024/04/19 11:50:39;;;;;;;541.90;127.32;;;22.40;45.50;;;;;;5332854;26;20085;-69
2024/04/19 11:53:09;;;;;;;549.00;126.05;;;22.70;45.00;;;;;;5371073;26;20004;-68
2024/04/19 11:55:46;;;;;;;566.50;144.90;;;22.90;44.60;;;;;;5335664;26;20018;-66
2024/04/19 11:58:17;;;;;;;578.03;134.50;;;22.90;44.40;;;;;;5337635;26;20788;-66
2024/04/19 12:00:48;;;;;;;540.63;122.45;;;22.90;44.30;;;;;;5340992;26;20521;-65
2024/04/19 12:03:19;;;;;;;797.65;214.23;;;22.70;44.00;;;;;;5332238;26;20008;-63
2024/04/19 12:05:50;;;;;;;560.63;138.25;;;22.40;44.10;;;;;;5366470;26;20096;-66
2024/04/19 12:08:21;;;;;;;549.50;123.55;;;22.00;43.90;;;;;;5354536;26;20109;-64
2024/04/19 12:10:54;;;;;;;557.05;126.72;;;21.60;44.20;;;;;;5364947;26;20008;-67
2024/04/19 12:13:25;;;;;;;686.50;161.90;;;21.30;44.40;;;;;;5363495;26;20431;-67
2024/04/19 12:16:15;;;;;;;626.70;140.10;;;20.90;44.40;;;;;;5355744;26;20040;-65
2024/04/19 12:19:06;;;;;;;547.63;123.22;;;20.40;44.60;;;;;;5375362;26;20016;-64
2024/04/19 12:21:37;;;;;;;762.88;226.23;;;20.00;44.80;;;;;;5345815;26;20114;-64
2024/04/19 12:24:10;;;;;;;567.00;120.45;;;19.80;45.10;;;;;;5357763;26;20118;-68
2024/04/19 12:26:45;;;;;;;565.67;131.07;;;19.50;45.20;;;;;;5345712;26;20720;-66
2024/04/19 12:29:17;;;;;;;551.25;125.80;;;19.40;45.40;;;;;;5352353;26;20008;-68
2024/04/19 12:31:49;;;;;;;800.03;229.60;;;19.30;45.40;;;;;;5337212;26;20008;-67
2024/04/19 12:34:19;;;;;;;598.22;136.40;;;19.20;45.50;;;;;;5365154;26;20430;-64
2024/04/19 12:36:51;;;;;;;614.83;133.48;;;19.10;45.60;;;;;;5303965;26;20042;-69
2024/04/19 12:39:22;;;;;;;527.22;106.68;;;19.20;45.90;;;;;;5333641;26;20089;-67
2024/04/19 12:41:55;;;;;;;760.63;194.20;;;19.40;45.90;;;;;;5331982;26;20578;-66
2024/04/19 12:44:24;;;;;;;631.92;136.40;;;19.60;45.70;;;;;;5337199;26;20000;-65